Time;durP1;ratioP1;P1;durP2;ratioP2;P2;SDS_P1;SDS_P2;PMS_P1;PMS_P2;Temp;Humidity;BMP_temperature;BMP_pressure;BME280_temperature;BME280_humidity;BME280_pressure;Samples;Min_cycle;Max_cycle;Signal;HPM_P1;HPM_P2
2023/03/02 00:02:16;;;;;;;26.90;12.60;;;;;;;-5.86;100.00;101827.25;5011456;28;20490;-74
2023/03/02 00:04:46;;;;;;;24.43;12.30;;;;;;;-5.86;100.00;101818.75;5011425;28;20974;-74
2023/03/02 00:07:14;;;;;;;19.57;12.03;;;;;;;-5.73;100.00;101822.13;5014585;28;20538;-74
2023/03/02 00:09:41;;;;;;;20.97;10.83;;;;;;;-5.72;100.00;101815.34;5015716;28;20692;-75
2023/03/02 00:12:09;;;;;;;20.47;11.83;;;;;;;-5.83;100.00;101818.94;5015560;28;20467;-74
2023/03/02 00:14:36;;;;;;;25.43;11.87;;;;;;;-5.96;100.00;101815.72;4997442;28;20477;-74
2023/03/02 00:17:06;;;;;;;19.27;10.97;;;;;;;-6.00;100.00;101817.94;5015020;28;20462;-74
2023/03/02 00:19:33;;;;;;;27.07;14.03;;;;;;;-5.75;100.00;101818.63;4997669;28;20463;-74
2023/03/02 00:21:59;;;;;;;19.33;10.80;;;;;;;-5.75;100.00;101816.06;5017956;28;20457;-74
2023/03/02 00:24:26;;;;;;;25.60;11.40;;;;;;;-5.82;100.00;101813.97;5026041;28;20829;-74
2023/03/02 00:26:53;;;;;;;19.53;11.57;;;;;;;-5.94;100.00;101809.00;5002136;28;20454;-74
2023/03/02 00:33:07;;;;;;;17.10;10.13;;;;;;;-5.78;100.00;101813.34;5015552;28;20998;-74
2023/03/02 00:35:37;;;;;;;19.53;10.57;;;;;;;-5.81;100.00;101813.16;5015115;28;20505;-74
2023/03/02 00:38:03;;;;;;;17.97;9.53;;;;;;;-5.96;100.00;101805.53;4996984;28;20570;-74
2023/03/02 00:40:30;;;;;;;21.47;9.87;;;;;;;-5.75;100.00;101805.91;5010650;28;20876;-74
2023/03/02 00:42:56;;;;;;;18.37;10.93;;;;;;;-5.82;100.00;101802.91;5014409;28;20456;-74
2023/03/02 00:45:22;;;;;;;19.50;11.17;;;;;;;-5.74;100.00;101801.69;4996949;28;20488;-74
2023/03/02 00:48:51;;;;;;;20.20;11.13;;;;;;;-5.75;100.00;101808.44;5010679;23;20507;-73
2023/03/02 00:51:26;;;;;;;22.00;10.80;;;;;;;-5.79;100.00;101796.31;4994579;28;20467;-73
2023/03/02 00:53:53;;;;;;;23.30;11.57;;;;;;;-6.06;100.00;101792.22;4994449;28;20581;-72
2023/03/02 01:04:45;;;;;;;23.80;10.13;;;;;;;-6.44;100.00;101790.75;4993519;28;20544;-74
2023/03/02 01:07:23;;;;;;;21.33;9.53;;;;;;;-6.45;100.00;101787.34;4993861;28;20448;-73
2023/03/02 01:17:25;;;;;;;15.00;9.10;;;;;;;-6.03;100.00;101783.09;4988760;28;20451;-74
2023/03/02 01:19:51;;;;;;;19.77;10.07;;;;;;;-5.91;100.00;101776.19;4973397;28;20543;-73
2023/03/02 01:22:19;;;;;;;16.77;9.73;;;;;;;-5.84;100.00;101776.53;4990732;28;20494;-74
2023/03/02 01:32:11;;;;;;;15.10;8.63;;;;;;;-6.29;100.00;101768.84;4990293;28;20491;-73
2023/03/02 01:34:38;;;;;;;22.07;10.33;;;;;;;-6.33;100.00;101766.88;4989225;28;20460;-74
2023/03/02 01:37:05;;;;;;;23.73;10.07;;;;;;;-6.30;100.00;101765.44;4991190;28;20925;-74
2023/03/02 01:39:35;;;;;;;17.73;10.23;;;;;;;-6.32;100.00;101763.56;4972545;28;20482;-73
2023/03/02 01:42:01;;;;;;;14.30;9.67;;;;;;;-6.39;100.00;101767.41;4973401;28;20468;-74
2023/03/02 01:44:42;;;;;;;20.93;10.67;;;;;;;-6.42;100.00;101763.78;4973220;28;20479;-73
2023/03/02 01:47:14;;;;;;;19.90;11.27;;;;;;;-6.26;100.00;101755.44;4991169;28;20751;-73
2023/03/02 01:49:52;;;;;;;30.57;12.60;;;;;;;-6.14;100.00;101759.63;4990145;28;20959;-74
2023/03/02 01:52:19;;;;;;;18.70;12.30;;;;;;;-6.45;100.00;101756.00;4990163;28;20546;-74
2023/03/02 01:54:49;;;;;;;23.17;12.07;;;;;;;-6.49;100.00;101752.38;4973574;28;20999;-73
2023/03/02 01:57:22;;;;;;;24.60;11.63;;;;;;;-6.48;100.00;101744.88;4974978;28;20464;-73
2023/03/02 01:59:52;;;;;;;17.93;11.27;;;;;;;-6.61;100.00;101751.63;4988130;28;20994;-73
2023/03/02 02:02:20;;;;;;;24.87;10.90;;;;;;;-6.76;100.00;101747.38;4972429;28;20881;-74
2023/03/02 02:04:50;;;;;;;23.67;12.47;;;;;;;-6.69;100.00;101746.09;4991421;28;20456;-73
2023/03/02 02:07:17;;;;;;;20.50;11.57;;;;;;;-6.72;100.00;101746.81;4972667;28;20826;-73
2023/03/02 02:09:47;;;;;;;19.57;11.07;;;;;;;-6.33;100.00;101746.56;4992696;28;20496;-73
2023/03/02 02:12:15;;;;;;;17.33;10.20;;;;;;;-6.28;100.00;101745.19;4971854;28;20519;-73
2023/03/02 02:14:42;;;;;;;25.30;11.53;;;;;;;-6.39;100.00;101741.16;4974243;28;20880;-73
2023/03/02 02:17:09;;;;;;;18.37;11.30;;;;;;;-6.42;100.00;101748.56;4971940;28;20459;-73
2023/03/02 02:23:37;;;;;;;17.17;9.50;;;;;;;-6.41;100.00;101748.66;4990067;28;20834;-73
2023/03/02 02:26:28;;;;;;;19.80;10.40;;;;;;;-6.44;100.00;101748.47;4981169;28;20503;-74
2023/03/02 02:32:44;;;;;;;24.30;11.10;;;;;;;-6.66;100.00;101736.16;4991235;28;20797;-73
2023/03/02 02:35:14;;;;;;;18.57;10.57;;;;;;;-6.74;100.00;101733.13;4988666;28;20463;-74
2023/03/02 02:41:34;;;;;;;16.00;10.17;;;;;;;-6.93;100.00;101730.22;4992311;28;20443;-73
2023/03/02 02:44:01;;;;;;;17.07;11.07;;;;;;;-6.70;100.00;101718.97;4973644;28;20477;-73
2023/03/02 02:46:29;;;;;;;23.47;11.43;;;;;;;-6.65;100.00;101725.19;4992843;28;20464;-73
2023/03/02 02:48:56;;;;;;;24.87;11.23;;;;;;;-6.48;100.00;101719.50;4976833;28;21058;-73
2023/03/02 02:51:28;;;;;;;24.30;12.70;;;;;;;-6.38;100.00;101717.53;4977201;28;20911;-72
2023/03/02 02:53:59;;;;;;;21.57;9.93;;;;;;;-6.30;100.00;101713.78;4988750;28;20547;-73
2023/03/02 02:56:36;;;;;;;22.20;11.57;;;;;;;-6.33;100.00;101713.56;4969513;28;21066;-73
2023/03/02 02:59:07;;;;;;;16.30;10.37;;;;;;;-6.33;100.00;101711.03;4972335;28;20492;-72
2023/03/02 03:01:33;;;;;;;20.20;10.77;;;;;;;-6.26;100.00;101703.03;4966502;28;20457;-73
2023/03/02 03:04:04;;;;;;;21.40;11.13;;;;;;;-6.30;100.00;101698.53;4973604;28;20534;-73
2023/03/02 03:14:14;;;;;;;20.10;10.50;;;;;;;-6.63;100.00;101699.94;4988523;28;20456;-73
2023/03/02 03:16:44;;;;;;;19.33;10.40;;;;;;;-6.87;100.00;101702.72;4970996;28;20453;-73
2023/03/02 03:19:15;;;;;;;17.90;11.80;;;;;;;-6.67;100.00;101698.88;4982743;28;20579;-71
2023/03/02 03:21:42;;;;;;;22.77;11.03;;;;;;;-6.59;100.00;101702.75;4971340;28;20467;-73
2023/03/02 03:24:08;;;;;;;20.17;11.40;;;;;;;-6.47;100.00;101700.09;4972750;28;20461;-72
2023/03/02 03:26:35;;;;;;;21.70;11.80;;;;;;;-6.38;100.00;101700.63;4970710;28;20460;-72
2023/03/02 03:29:03;;;;;;;21.13;11.83;;;;;;;-6.45;100.00;101706.13;4969696;28;20499;-73
2023/03/02 03:31:31;;;;;;;22.27;11.77;;;;;;;-6.51;100.00;101703.22;4969035;28;20462;-72
2023/03/02 03:33:59;;;;;;;25.33;12.83;;;;;;;-6.44;100.00;101696.84;4972425;28;20459;-72
2023/03/02 03:36:28;;;;;;;19.33;12.53;;;;;;;-6.40;100.00;101702.22;4988600;28;21080;-72
2023/03/02 03:38:54;;;;;;;22.70;12.47;;;;;;;-6.48;100.00;101699.19;4974040;28;20505;-73
2023/03/02 03:41:21;;;;;;;23.37;11.97;;;;;;;-6.50;100.00;101700.75;4977791;28;20542;-72
2023/03/02 03:43:48;;;;;;;17.47;12.53;;;;;;;-6.57;100.00;101701.19;4970844;28;20467;-72
2023/03/02 03:46:15;;;;;;;18.50;11.87;;;;;;;-6.73;100.00;101691.78;4972274;28;20472;-73
2023/03/02 03:48:43;;;;;;;18.77;12.57;;;;;;;-6.74;100.00;101696.75;4992139;28;20526;-72
2023/03/02 03:51:09;;;;;;;25.27;12.53;;;;;;;-6.94;100.00;101700.59;4974061;28;20459;-73
2023/03/02 03:53:37;;;;;;;25.20;13.67;;;;;;;-6.86;100.00;101702.84;4988855;28;20550;-72
2023/03/02 03:56:05;;;;;;;25.67;12.23;;;;;;;-6.78;100.00;101694.81;4971190;28;20468;-72
2023/03/02 03:58:32;;;;;;;28.17;13.37;;;;;;;-6.73;100.00;101701.91;4965884;28;20480;-72
2023/03/02 04:00:58;;;;;;;22.90;12.90;;;;;;;-6.75;100.00;101697.53;4972740;28;20463;-73
2023/03/02 04:03:26;;;;;;;26.80;13.67;;;;;;;-6.62;100.00;101696.63;4970339;28;20468;-73
2023/03/02 04:05:54;;;;;;;21.13;11.83;;;;;;;-6.55;100.00;101696.22;4973917;28;20980;-72
2023/03/02 04:08:21;;;;;;;22.20;10.77;;;;;;;-6.67;100.00;101696.34;4966969;28;20483;-72
2023/03/02 04:10:48;;;;;;;22.70;12.33;;;;;;;-6.66;100.00;101698.97;4985208;28;20453;-73
2023/03/02 04:13:15;;;;;;;22.90;11.47;;;;;;;-6.66;100.00;101693.88;4974660;28;20551;-73
2023/03/02 04:15:41;;;;;;;19.43;10.97;;;;;;;-6.67;100.00;101691.25;4970906;28;20464;-72
2023/03/02 04:18:08;;;;;;;22.60;11.67;;;;;;;-6.61;100.00;101691.66;4975904;28;20562;-73
2023/03/02 04:20:35;;;;;;;24.87;12.90;;;;;;;-6.72;100.00;101685.03;4969858;28;20551;-72
2023/03/02 04:26:51;;;;;;;22.03;11.27;;;;;;;-6.98;100.00;101701.19;4986651;28;20841;-72
2023/03/02 04:29:51;;;;;;;21.87;12.60;;;;;;;-6.80;100.00;101698.91;4988019;28;21112;-73
2023/03/02 04:33:11;;;;;;;24.40;13.33;;;;;;;-6.77;100.00;101697.44;4991422;28;20949;-73
2023/03/02 04:36:03;;;;;;;21.30;11.13;;;;;;;-6.85;100.00;101709.63;4985724;28;20451;-73
2023/03/02 04:38:29;;;;;;;26.77;13.40;;;;;;;-6.79;100.00;101699.00;4990977;28;20885;-73
2023/03/02 04:40:56;;;;;;;22.40;13.80;;;;;;;-6.62;100.00;101704.22;4973934;28;20539;-72
2023/03/02 04:43:25;;;;;;;22.47;13.13;;;;;;;-6.63;100.00;101705.00;4984154;28;20489;-72
2023/03/02 04:45:52;;;;;;;25.23;14.27;;;;;;;-6.71;100.00;101704.53;4987813;28;20472;-72
2023/03/02 04:48:18;;;;;;;26.03;14.70;;;;;;;-6.75;100.00;101695.88;4992589;28;20498;-73
2023/03/02 04:50:45;;;;;;;27.73;14.10;;;;;;;-6.84;100.00;101695.31;4985668;28;20460;-73
2023/03/02 04:53:11;;;;;;;23.00;13.23;;;;;;;-6.82;100.00;101701.34;4991928;28;20488;-72
2023/03/02 04:59:28;;;;;;;20.70;11.53;;;;;;;-6.71;100.00;101700.34;4986498;28;20983;-72
2023/03/02 05:01:56;;;;;;;29.30;14.53;;;;;;;-6.77;100.00;101694.91;4993356;28;20828;-71
2023/03/02 05:04:22;;;;;;;21.63;12.77;;;;;;;-6.71;100.00;101695.28;4992306;28;20494;-72
2023/03/02 05:06:49;;;;;;;22.47;12.00;;;;;;;-6.62;100.00;101689.00;4991192;28;20452;-72
2023/03/02 05:09:16;;;;;;;22.47;12.67;;;;;;;-6.72;100.00;101696.06;4988457;28;20857;-73
2023/03/02 05:15:34;;;;;;;18.37;11.40;;;;;;;-7.21;100.00;101699.75;4990099;28;20435;-73
2023/03/02 05:21:48;;;;;;;18.07;10.77;;;;;;;-7.36;100.00;101700.53;4993885;28;20493;-72
2023/03/02 05:28:03;;;;;;;22.43;11.20;;;;;;;-7.40;100.00;101697.69;4996280;28;20486;-73
2023/03/02 05:30:36;;;;;;;22.73;10.83;;;;;;;-7.27;100.00;101690.97;4973412;28;20559;-73
2023/03/02 05:33:02;;;;;;;16.50;10.13;;;;;;;-7.24;100.00;101687.78;4988867;28;21004;-73
2023/03/02 05:35:29;;;;;;;21.27;11.40;;;;;;;-7.17;100.00;101686.50;4975183;28;20459;-73
2023/03/02 05:38:40;;;;;;;17.87;10.40;;;;;;;-7.22;100.00;101688.75;4972493;28;20484;-73
2023/03/02 05:41:54;;;;;;;18.70;10.10;;;;;;;-7.09;100.00;101682.75;4990347;28;20554;-72
2023/03/02 05:44:20;;;;;;;17.90;11.00;;;;;;;-7.07;100.00;101682.09;4987676;28;20475;-72
2023/03/02 05:46:48;;;;;;;19.27;11.13;;;;;;;-7.21;100.00;101672.75;4991598;28;20453;-72
2023/03/02 05:49:15;;;;;;;26.10;11.17;;;;;;;-7.19;100.00;101681.34;4986254;28;20493;-73
2023/03/02 05:58:53;;;;;;;20.13;10.50;;;;;;;-6.97;100.00;101672.50;4989361;28;20465;-72
2023/03/02 06:01:19;;;;;;;19.70;10.73;;;;;;;-6.97;100.00;101681.00;4993053;28;20549;-73
2023/03/02 06:03:47;;;;;;;20.47;10.97;;;;;;;-7.08;100.00;101679.47;4986804;28;20483;-72
2023/03/02 06:09:44;;;;;;;22.33;10.50;;;;;;;-7.34;100.00;101682.91;4922978;29;21151;-73
2023/03/02 06:12:48;;;;;;;23.53;11.37;;;;;;;-7.43;100.00;101695.84;4932369;29;20490;-74
2023/03/02 06:15:14;;;;;;;22.80;12.77;;;;;;;-7.39;100.00;101700.31;4933116;29;20594;-73
2023/03/02 06:21:57;;;;;;;19.27;9.97;;;;;;;-7.08;100.00;101702.28;4992739;28;20432;-74
2023/03/02 06:24:23;;;;;;;19.70;11.03;;;;;;;-6.97;100.00;101708.00;4990092;28;20994;-74
2023/03/02 06:26:50;;;;;;;19.70;10.83;;;;;;;-6.80;100.00;101699.78;4995065;28;20502;-74
2023/03/02 06:29:16;;;;;;;17.47;10.80;;;;;;;-6.91;100.00;101708.38;4974746;28;21099;-73
2023/03/02 06:31:42;;;;;;;22.00;11.83;;;;;;;-6.75;100.00;101708.56;4990349;28;20978;-73
2023/03/02 06:34:09;;;;;;;22.57;11.00;;;;;;;-6.69;100.00;101714.00;4998091;28;20958;-73
2023/03/02 06:36:37;;;;;;;24.33;12.93;;;;;;;-6.65;100.00;101704.91;4997415;28;20452;-73
2023/03/02 06:42:52;;;;;;;21.23;11.47;;;;;;;-6.41;100.00;101708.06;4988987;28;20984;-73
2023/03/02 06:45:18;;;;;;;24.23;11.77;;;;;;;-6.34;100.00;101709.31;4995917;28;20794;-73
2023/03/02 06:47:45;;;;;;;17.97;11.20;;;;;;;-6.30;100.00;101704.50;4978536;28;20987;-74
2023/03/02 06:50:11;;;;;;;33.97;14.53;;;;;;;-6.33;100.00;101714.47;4990868;28;20879;-73
2023/03/02 06:52:38;;;;;;;26.37;13.30;;;;;;;-6.30;100.00;101699.44;4989036;28;20817;-72
2023/03/02 06:55:06;;;;;;;33.20;13.63;;;;;;;-6.34;100.00;101706.78;4989505;28;20456;-73
2023/03/02 06:57:33;;;;;;;25.87;14.40;;;;;;;-6.28;100.00;101704.56;4994312;28;20458;-72
2023/03/02 07:00:06;;;;;;;28.07;14.63;;;;;;;-6.31;100.00;101707.81;4989109;28;20452;-73
2023/03/02 07:02:32;;;;;;;27.40;15.63;;;;;;;-6.20;100.00;101712.66;4987777;28;20583;-73
2023/03/02 07:04:59;;;;;;;44.83;26.17;;;;;;;-6.15;100.00;101716.34;4987068;28;20495;-72
2023/03/02 07:07:25;;;;;;;38.27;23.43;;;;;;;-6.04;100.00;101716.97;4987957;28;20466;-73
2023/03/02 07:09:52;;;;;;;31.37;15.70;;;;;;;-5.95;100.00;101714.94;4993778;28;20458;-73
2023/03/02 07:12:18;;;;;;;25.27;15.30;;;;;;;-5.82;100.00;101713.97;4996602;28;20452;-73
2023/03/02 07:14:47;;;;;;;40.00;19.47;;;;;;;-5.71;100.00;101715.50;4995914;28;20449;-73
2023/03/02 07:17:15;;;;;;;157.47;49.77;;;;;;;-5.67;100.00;101719.94;4990484;28;20452;-73
2023/03/02 07:19:42;;;;;;;139.43;46.83;;;;;;;-5.55;100.00;101717.25;4985006;28;20978;-73
2023/03/02 07:22:08;;;;;;;174.60;60.57;;;;;;;-5.45;100.00;101713.53;4987666;28;20462;-72
2023/03/02 07:24:34;;;;;;;39.43;21.33;;;;;;;-5.33;100.00;101717.66;4976395;28;20472;-72
2023/03/02 07:27:01;;;;;;;40.80;24.37;;;;;;;-5.22;100.00;101714.84;4970810;28;20465;-73
2023/03/02 07:29:28;;;;;;;28.47;16.63;;;;;;;-5.09;100.00;101711.28;4990193;28;20538;-73
2023/03/02 07:31:56;;;;;;;24.27;15.00;;;;;;;-4.96;100.00;101711.16;4988457;28;20539;-72
2023/03/02 07:34:24;;;;;;;32.13;18.03;;;;;;;-4.83;100.00;101705.94;4988266;28;20453;-73
2023/03/02 07:36:51;;;;;;;34.23;16.27;;;;;;;-4.73;100.00;101709.88;4991623;28;20459;-75
2023/03/02 07:39:17;;;;;;;32.57;17.43;;;;;;;-4.67;100.00;101712.72;4987933;28;20896;-73
2023/03/02 07:41:44;;;;;;;31.73;16.23;;;;;;;-4.57;100.00;101707.34;4987388;28;20480;-73
2023/03/02 07:44:12;;;;;;;33.97;15.90;;;;;;;-4.45;100.00;101699.47;4964595;28;20471;-74
2023/03/02 07:47:04;;;;;;;33.80;16.80;;;;;;;-4.38;100.00;101704.09;4987006;28;20826;-73
2023/03/02 07:49:34;;;;;;;31.70;17.03;;;;;;;-4.30;100.00;101712.13;4996072;28;21084;-73
2023/03/02 07:52:00;;;;;;;29.37;19.27;;;;;;;-4.19;100.00;101711.00;4992983;28;20531;-74
2023/03/02 07:54:29;;;;;;;54.73;25.90;;;;;;;-4.04;100.00;101717.69;4998045;28;20462;-74
2023/03/02 07:56:55;;;;;;;43.40;20.80;;;;;;;-3.81;100.00;101714.59;4987290;28;20454;-72
2023/03/02 08:03:08;;;;;;;37.53;19.83;;;;;;;-3.37;100.00;101717.56;4987090;28;20481;-73
2023/03/02 08:05:36;;;;;;;41.07;20.67;;;;;;;-3.25;100.00;101702.84;4993115;28;20527;-73
2023/03/02 08:08:02;;;;;;;92.30;36.40;;;;;;;-3.11;100.00;101707.75;4992510;28;20472;-73
2023/03/02 08:10:29;;;;;;;37.43;22.20;;;;;;;-3.02;100.00;101708.16;4989118;28;20539;-73
2023/03/02 08:12:55;;;;;;;40.03;21.27;;;;;;;-2.87;100.00;101705.44;4992027;28;20196;-73
2023/03/02 08:15:22;;;;;;;42.17;20.97;;;;;;;-2.72;100.00;101700.16;4995134;28;20971;-73
2023/03/02 08:17:48;;;;;;;40.23;21.03;;;;;;;-2.52;100.00;101695.94;4994563;28;20774;-74
2023/03/02 08:20:15;;;;;;;42.47;21.60;;;;;;;-2.33;100.00;101698.50;4994793;28;20209;-73
2023/03/02 08:22:43;;;;;;;46.07;21.73;;;;;;;-2.17;100.00;101694.06;4992290;28;20588;-73
2023/03/02 08:25:09;;;;;;;54.67;25.57;;;;;;;-1.99;100.00;101701.63;4986467;28;20206;-72
2023/03/02 08:27:37;;;;;;;49.93;22.70;;;;;;;-1.86;100.00;101696.22;4992141;28;20228;-73
2023/03/02 08:30:04;;;;;;;49.77;21.87;;;;;;;-1.66;100.00;101698.72;4991139;28;20227;-73
2023/03/02 08:32:32;;;;;;;51.33;22.93;;;;;;;-1.53;100.00;101712.09;4993085;28;20224;-73
2023/03/02 08:34:58;;;;;;;45.30;22.80;;;;;;;-1.35;100.00;101705.97;4994722;28;20189;-73
2023/03/02 08:37:25;;;;;;;46.20;22.13;;;;;;;-1.27;100.00;101707.13;4992593;28;20231;-72
2023/03/02 08:39:53;;;;;;;45.03;22.20;;;;;;;-1.18;100.00;101697.28;4990922;28;20646;-72
2023/03/02 08:42:20;;;;;;;42.63;22.63;;;;;;;-1.01;100.00;101709.84;4990943;28;20566;-73
2023/03/02 08:44:46;;;;;;;49.03;22.73;;;;;;;-0.91;100.00;101705.94;4991453;28;20246;-72
2023/03/02 08:51:03;;;;;;;48.47;21.60;;;;;;;-0.58;100.00;101712.31;4989862;28;20255;-72
2023/03/02 08:57:04;;;;;;;47.73;22.80;;;;;;;-0.22;100.00;101717.03;4973061;28;20236;-72
2023/03/02 08:59:30;;;;;;;51.33;24.40;;;;;;;-0.17;100.00;101729.16;4990468;28;20214;-72
2023/03/02 09:01:58;;;;;;;48.27;23.37;;;;;;;-0.14;100.00;101721.53;4990364;28;20193;-72
2023/03/02 09:04:25;;;;;;;51.93;23.97;;;;;;;-0.07;100.00;101723.50;4972170;28;20236;-73
2023/03/02 09:06:51;;;;;;;41.63;21.00;;;;;;;0.15;100.00;101720.88;4993872;28;20189;-72
2023/03/02 09:09:18;;;;;;;46.90;21.70;;;;;;;0.25;100.00;101732.31;4993680;28;20217;-72
2023/03/02 09:11:45;;;;;;;42.30;20.73;;;;;;;0.37;100.00;101727.59;4993962;28;20196;-73
2023/03/02 09:14:13;;;;;;;32.97;19.33;;;;;;;0.46;100.00;101729.59;4996856;28;20280;-72
2023/03/02 09:16:39;;;;;;;37.07;19.50;;;;;;;0.49;100.00;101726.25;4989340;28;20194;-72
2023/03/02 09:19:06;;;;;;;30.40;16.20;;;;;;;0.54;100.00;101719.56;4995101;28;20702;-73
2023/03/02 09:21:32;;;;;;;34.70;17.30;;;;;;;0.63;100.00;101719.84;4987708;28;20201;-72
2023/03/02 09:23:59;;;;;;;29.93;14.97;;;;;;;0.72;100.00;101724.41;4994257;28;20574;-73
2023/03/02 09:26:26;;;;;;;26.17;14.17;;;;;;;0.85;100.00;101718.84;4988067;28;20288;-72
2023/03/02 09:28:52;;;;;;;25.03;13.27;;;;;;;0.91;100.00;101716.47;4991069;28;20556;-72
2023/03/02 09:31:20;;;;;;;24.67;13.03;;;;;;;0.87;100.00;101717.19;4973733;28;20271;-72
2023/03/02 09:33:47;;;;;;;22.13;12.20;;;;;;;1.04;100.00;101707.47;4992765;28;20589;-72
2023/03/02 09:36:19;;;;;;;25.53;12.43;;;;;;;1.24;100.00;101714.88;4973835;28;20204;-71
2023/03/02 09:38:45;;;;;;;23.33;13.03;;;;;;;1.29;100.00;101714.19;4995964;28;20227;-73
2023/03/02 09:41:57;;;;;;;19.33;11.50;;;;;;;1.45;100.00;101712.06;4985963;28;20202;-72
2023/03/02 09:44:41;;;;;;;21.70;10.37;;;;;;;1.55;100.00;101714.06;4989418;28;20213;-71
2023/03/02 09:47:18;;;;;;;23.30;11.83;;;;;;;1.68;100.00;101712.72;4986701;28;20197;-72
2023/03/02 09:49:57;;;;;;;24.40;10.87;;;;;;;1.79;100.00;101706.16;4985743;28;20226;-72
2023/03/02 09:52:30;;;;;;;21.50;10.13;;;;;;;1.89;100.00;101694.44;4989890;28;20541;-72
2023/03/02 09:55:00;;;;;;;24.17;11.47;;;;;;;1.97;100.00;101697.19;4989946;28;20669;-73
2023/03/02 09:57:33;;;;;;;21.87;10.83;;;;;;;2.01;100.00;101693.88;4991065;28;20761;-73
2023/03/02 10:00:03;;;;;;;22.33;11.67;;;;;;;2.07;100.00;101691.44;4972652;28;20209;-72
2023/03/02 10:02:46;;;;;;;22.23;9.37;;;;;;;2.26;100.00;101683.38;4991149;28;20263;-72
2023/03/02 10:05:17;;;;;;;17.60;9.67;;;;;;;2.41;100.00;101693.19;4989705;28;20209;-72
2023/03/02 10:07:44;;;;;;;19.03;10.73;;;;;;;2.55;100.00;101682.34;4989248;28;20557;-73
2023/03/02 10:10:23;;;;;;;16.00;9.60;;;;;;;2.70;100.00;101677.53;4991093;28;20201;-72
2023/03/02 10:13:03;;;;;;;18.30;11.00;;;;;;;2.80;100.00;101683.78;4989921;28;20188;-71
2023/03/02 10:15:35;;;;;;;20.63;10.37;;;;;;;2.83;100.00;101679.56;4991649;28;20457;-72
2023/03/02 10:18:14;;;;;;;16.40;9.40;;;;;;;2.80;100.00;101670.91;4985145;28;20213;-72
2023/03/02 10:20:48;;;;;;;19.37;10.23;;;;;;;3.00;100.00;101671.34;4986586;28;20193;-72
2023/03/02 10:23:30;;;;;;;16.97;8.60;;;;;;;3.16;100.00;101673.41;4990632;28;20500;-71
2023/03/02 10:26:05;;;;;;;19.40;10.20;;;;;;;3.22;100.00;101668.38;4989790;28;20213;-72
2023/03/02 10:28:35;;;;;;;18.20;9.77;;;;;;;3.34;100.00;101667.78;4985645;28;20300;-72
2023/03/02 10:31:09;;;;;;;18.63;9.13;;;;;;;3.32;100.00;101663.41;4992242;28;20284;-71
2023/03/02 10:33:40;;;;;;;18.80;10.43;;;;;;;3.49;100.00;101672.34;4992497;28;20236;-72
2023/03/02 10:36:19;;;;;;;19.90;9.63;;;;;;;3.55;100.00;101664.75;4990037;28;20713;-72
2023/03/02 10:38:46;;;;;;;17.30;9.53;;;;;;;3.57;100.00;101657.91;4988755;28;20220;-72
2023/03/02 10:41:17;;;;;;;16.27;8.40;;;;;;;3.61;100.00;101661.41;4969797;28;20216;-72
2023/03/02 10:43:47;;;;;;;17.37;8.67;;;;;;;3.69;100.00;101664.13;4989920;28;20201;-71
2023/03/02 10:46:14;;;;;;;16.20;8.97;;;;;;;3.79;100.00;101666.03;4992621;28;20197;-72
2023/03/02 10:48:49;;;;;;;13.70;8.33;;;;;;;3.92;100.00;101664.53;4989031;28;20229;-73
2023/03/02 10:51:24;;;;;;;17.70;9.53;;;;;;;3.90;100.00;101658.50;4989864;28;20204;-73
2023/03/02 10:53:50;;;;;;;17.47;8.70;;;;;;;3.87;100.00;101658.44;4986980;28;20219;-73
2023/03/02 10:56:20;;;;;;;16.87;8.57;;;;;;;4.06;100.00;101657.91;4988384;28;20205;-72
2023/03/02 10:58:46;;;;;;;16.33;9.17;;;;;;;4.17;100.00;101652.97;4996277;28;20217;-71
2023/03/02 11:01:17;;;;;;;12.90;8.47;;;;;;;4.19;100.00;101659.00;4991352;28;20217;-72
2023/03/02 11:03:56;;;;;;;16.23;8.33;;;;;;;4.23;100.00;101649.59;4986020;28;20273;-72
2023/03/02 11:06:23;;;;;;;14.23;8.40;;;;;;;4.36;100.00;101652.41;4984902;28;20212;-73
2023/03/02 11:08:58;;;;;;;14.10;8.07;;;;;;;4.47;100.00;101651.72;4989859;28;20316;-73
2023/03/02 11:11:25;;;;;;;15.90;8.33;;;;;;;4.47;100.00;101646.53;4966830;28;20215;-73
2023/03/02 11:13:51;;;;;;;15.40;8.63;;;;;;;4.46;100.00;101640.50;4991369;28;20201;-73
2023/03/02 11:16:26;;;;;;;18.60;8.20;;;;;;;4.52;100.00;101637.13;4990871;28;20221;-74
2023/03/02 11:18:58;;;;;;;12.47;7.97;;;;;;;4.68;100.00;101630.50;4993354;28;20302;-74
2023/03/02 11:21:30;;;;;;;15.60;8.43;;;;;;;4.78;100.00;101629.75;4991479;28;20205;-74
2023/03/02 11:24:05;;;;;;;13.80;8.90;;;;;;;4.77;100.00;101622.88;4988135;28;20201;-74
2023/03/02 11:26:37;;;;;;;17.77;9.80;;;;;;;4.85;100.00;101612.63;4986696;28;20196;-73
2023/03/02 11:29:10;;;;;;;11.87;7.13;;;;;;;4.94;100.00;101623.06;4980745;28;20223;-73
2023/03/02 11:31:43;;;;;;;15.20;7.30;;;;;;;4.95;100.00;101613.63;4985646;28;20203;-73
2023/03/02 11:34:23;;;;;;;10.67;7.00;;;;;;;5.12;100.00;101614.72;4986287;28;20202;-75
2023/03/02 11:37:01;;;;;;;14.47;7.97;;;;;;;5.20;100.00;101604.44;4985207;28;20693;-73
2023/03/02 11:39:41;;;;;;;15.03;7.33;;;;;;;5.19;100.00;101613.94;4988855;28;20273;-73
2023/03/02 11:42:18;;;;;;;17.10;7.67;;;;;;;5.29;100.00;101608.00;4969912;28;20221;-74
2023/03/02 11:44:46;;;;;;;12.60;7.27;;;;;;;5.26;100.00;101610.56;4987799;28;20297;-74
2023/03/02 11:47:12;;;;;;;15.13;7.43;;;;;;;5.25;100.00;101606.22;4988074;28;20224;-74
2023/03/02 11:49:45;;;;;;;12.80;7.20;;;;;;;5.39;100.00;101608.09;4987568;28;20625;-74
2023/03/02 11:52:19;;;;;;;15.07;7.93;;;;;;;5.49;100.00;101603.03;4987131;28;20687;-73
2023/03/02 11:54:49;;;;;;;13.93;6.97;;;;;;;5.45;100.00;101606.47;4985297;28;20288;-74
2023/03/02 11:57:21;;;;;;;11.53;7.03;;;;;;;5.53;100.00;101603.09;4996702;28;20201;-74
2023/03/02 11:59:49;;;;;;;12.70;7.70;;;;;;;5.58;100.00;101611.75;4986211;28;20551;-73
2023/03/02 12:02:16;;;;;;;11.70;7.07;;;;;;;5.58;100.00;101607.44;4990494;28;20200;-72
2023/03/02 12:04:44;;;;;;;13.13;7.10;;;;;;;5.73;100.00;101596.38;5001859;28;20408;-73
2023/03/02 12:07:21;;;;;;;10.83;6.60;;;;;;;5.77;100.00;101598.16;4997436;28;20200;-73
2023/03/02 12:13:37;;;;;;;10.50;6.73;;;;;;;5.87;100.00;101593.91;5001560;28;20231;-73
2023/03/02 12:16:17;;;;;;;10.93;6.80;;;;;;;5.86;100.00;101582.69;4998711;28;20196;-73
2023/03/02 12:18:47;;;;;;;15.10;7.87;;;;;;;5.90;100.00;101583.59;4991208;28;20215;-71
2023/03/02 12:21:18;;;;;;;10.17;6.30;;;;;;;6.01;100.00;101586.28;4999135;28;20193;-73
2023/03/02 12:24:00;;;;;;;9.73;6.20;;;;;;;6.01;100.00;101575.94;5000886;28;20280;-73
2023/03/02 12:26:34;;;;;;;11.53;6.13;;;;;;;6.10;100.00;101577.72;4998489;28;20432;-73
2023/03/02 12:29:04;;;;;;;11.20;6.43;;;;;;;6.15;100.00;101570.88;4992880;28;20703;-72
2023/03/02 12:31:42;;;;;;;12.90;6.80;;;;;;;6.23;100.00;101574.38;4993205;28;20215;-72
2023/03/02 12:34:26;;;;;;;12.80;6.87;;;;;;;6.23;100.00;101561.44;4996453;28;20287;-73
2023/03/02 12:37:00;;;;;;;11.03;6.43;;;;;;;6.17;100.00;101562.25;4994628;28;20268;-72
2023/03/02 12:39:37;;;;;;;12.00;7.17;;;;;;;6.25;100.00;101555.41;4999499;28;20225;-74
2023/03/02 12:42:33;;;;;;;12.63;7.17;;;;;;;6.40;100.00;101557.25;4999732;28;20280;-73
2023/03/02 12:45:04;;;;;;;11.57;6.57;;;;;;;6.48;100.00;101556.41;4993890;28;20652;-72
2023/03/02 12:47:33;;;;;;;13.27;7.57;;;;;;;6.34;100.00;101556.31;4994005;28;20212;-73
2023/03/02 12:50:02;;;;;;;17.50;12.07;;;;;;;6.30;100.00;101557.13;5001384;28;20206;-74
2023/03/02 12:52:32;;;;;;;12.97;6.50;;;;;;;6.41;100.00;101546.00;5002499;28;20211;-74
2023/03/02 12:55:01;;;;;;;11.80;7.17;;;;;;;6.39;100.00;101539.09;4995662;28;20585;-73
2023/03/02 12:57:28;;;;;;;10.87;6.53;;;;;;;6.46;100.00;101533.09;5006036;28;20540;-74
2023/03/02 12:59:57;;;;;;;10.77;7.00;;;;;;;6.51;100.00;101536.56;4995023;28;20196;-74
2023/03/02 13:02:25;;;;;;;27.00;13.17;;;;;;;6.44;100.00;101533.06;4983665;28;20213;-74